createdAt,value
2023-03-19T00:01:56.010Z,98840.66
2023-03-19T00:04:24.523Z,98841.78
2023-03-19T00:06:51.382Z,98842.81
2023-03-19T00:09:19.102Z,98833.16
2023-03-19T00:11:46.074Z,98825.84
2023-03-19T00:14:13.250Z,98825.84
2023-03-19T00:16:40.265Z,98831.44
2023-03-19T00:19:07.400Z,98825.09
2023-03-19T00:21:34.324Z,98832.84
2023-03-19T00:24:02.759Z,98836.59
2023-03-19T00:26:30.184Z,98826.81
2023-03-19T00:29:00.589Z,98822.94
2023-03-19T00:31:28.268Z,98834.78
2023-03-19T00:33:58.077Z,98835.53
2023-03-19T00:36:25.961Z,98834.78
2023-03-19T00:38:53.059Z,98833.06
2023-03-19T00:41:20.754Z,98836.69
2023-03-19T00:43:47.816Z,98829.72
2023-03-19T00:46:14.688Z,98834.22
2023-03-19T00:48:41.792Z,98828.31
2023-03-19T00:51:09.586Z,98831.88
2023-03-19T00:53:43.053Z,98828.31
2023-03-19T00:56:11.475Z,98826.81
2023-03-19T00:58:38.915Z,98819.63
2023-03-19T01:01:06.100Z,98821.84
2023-03-19T01:03:33.189Z,98832.28
2023-03-19T01:05:59.957Z,98826.91
2023-03-19T01:08:27.400Z,98832.38
2023-03-19T01:10:54.223Z,98820.78
2023-03-19T01:13:21.327Z,98825.41
2023-03-19T01:15:51.937Z,98833.47
2023-03-19T01:18:19.045Z,98829.38
2023-03-19T01:20:45.777Z,98818.09
2023-03-19T01:23:12.814Z,98826.81
2023-03-19T01:25:39.625Z,98816.47
2023-03-19T01:28:07.655Z,98824.00
2023-03-19T01:30:34.826Z,98827.53
2023-03-19T01:33:02.150Z,98828.63
2023-03-19T01:35:28.990Z,98828.63
2023-03-19T01:37:56.182Z,98824.41
2023-03-19T01:40:23.601Z,98820.75
2023-03-19T01:42:57.444Z,98825.16
2023-03-19T01:45:35.188Z,98824.59
2023-03-19T01:48:02.425Z,98820.00
2023-03-19T01:50:41.920Z,98822.31
2023-03-19T01:53:12.553Z,98824.22
2023-03-19T01:55:39.852Z,98821.69
2023-03-19T01:58:06.943Z,98819.28
2023-03-19T02:00:35.214Z,98821.53
2023-03-19T02:03:02.520Z,98827.66
2023-03-19T02:05:29.394Z,98830.53
2023-03-19T02:07:58.483Z,98833.22
2023-03-19T02:10:25.255Z,98831.28
2023-03-19T02:12:52.323Z,98832.16
2023-03-19T02:15:19.194Z,98838.69
2023-03-19T02:17:46.369Z,98842.03
2023-03-19T02:20:46.591Z,98847.53
2023-03-19T02:23:26.377Z,98839.69
2023-03-19T02:26:12.750Z,98840.19
2023-03-19T02:28:41.524Z,98843.94
2023-03-19T02:31:08.503Z,98837.78
2023-03-19T02:33:35.743Z,98841.66
2023-03-19T02:36:03.853Z,98845.94
2023-03-19T02:38:32.090Z,98850.47
2023-03-19T02:41:09.397Z,98852.28
2023-03-19T02:43:38.102Z,98852.09
2023-03-19T02:46:07.469Z,98852.50
2023-03-19T02:48:35.027Z,98852.03
2023-03-19T02:51:01.749Z,98854.72
2023-03-19T02:53:28.792Z,98847.63
2023-03-19T02:55:55.668Z,98850.09
2023-03-19T02:58:22.685Z,98848.59
2023-03-19T03:00:49.457Z,98849.84
2023-03-19T03:03:17.148Z,98856.28
2023-03-19T03:05:43.948Z,98844.69
2023-03-19T03:08:11.026Z,98846.78
2023-03-19T03:10:37.846Z,98843.16
2023-03-19T03:13:05.635Z,98851.22
2023-03-19T03:15:32.371Z,98843.34
2023-03-19T03:17:59.438Z,98840.56
2023-03-19T03:20:26.186Z,98838.50
2023-03-19T03:22:53.718Z,98841.09
2023-03-19T03:25:21.211Z,98838.41
2023-03-19T03:27:48.326Z,98839.25
2023-03-19T03:30:16.230Z,98843.88
2023-03-19T03:32:43.339Z,98833.44
2023-03-19T03:35:10.295Z,98837.25
2023-03-19T03:37:38.093Z,98839.75
2023-03-19T03:40:08.377Z,98838.97
2023-03-19T03:42:36.810Z,98843.88
2023-03-19T03:45:04.092Z,98840.25
2023-03-19T03:47:31.469Z,98853.66
2023-03-19T03:49:58.214Z,98847.31
2023-03-19T03:52:25.361Z,98847.72
2023-03-19T03:54:52.089Z,98856.53
2023-03-19T03:57:19.312Z,98849.63
2023-03-19T03:59:46.026Z,98852.41
2023-03-19T04:02:13.106Z,98843.69
2023-03-19T04:04:39.962Z,98846.19
2023-03-19T04:07:07.381Z,98848.97
2023-03-19T04:09:34.184Z,98845.44
2023-03-19T04:12:01.270Z,98845.72
2023-03-19T04:14:28.170Z,98838.44
2023-03-19T04:16:55.205Z,98843.13
2023-03-19T04:19:22.244Z,98844.28
2023-03-19T04:21:49.280Z,98846.41
2023-03-19T04:24:16.109Z,98835.88
2023-03-19T04:26:43.160Z,98836.81
2023-03-19T04:29:09.923Z,98838.56
2023-03-19T04:31:37.030Z,98836.72
2023-03-19T04:34:03.822Z,98827.81
2023-03-19T04:36:31.008Z,98838.84
2023-03-19T04:38:57.793Z,98835.50
2023-03-19T04:41:26.062Z,98825.72
2023-03-19T04:43:52.802Z,98836.34
2023-03-19T04:46:19.878Z,98825.72
2023-03-19T04:48:46.657Z,98826.38
2023-03-19T04:51:13.756Z,98831.97
2023-03-19T04:53:40.658Z,98830.22
2023-03-19T04:56:08.083Z,98826.69
2023-03-19T04:58:35.280Z,98821.41
2023-03-19T05:01:02.442Z,98830.41
2023-03-19T05:03:29.315Z,98836.53
2023-03-19T05:05:56.395Z,98830.31
2023-03-19T05:08:23.204Z,98835.69
2023-03-19T05:10:50.543Z,98835.38
2023-03-19T05:13:18.098Z,98835.88
2023-03-19T05:15:46.427Z,98841.53
2023-03-19T05:18:13.333Z,98843.06
2023-03-19T05:20:40.590Z,98837.69
2023-03-19T05:23:07.323Z,98836.94
2023-03-19T05:25:35.322Z,98837.69
2023-03-19T05:28:03.121Z,98846.59
2023-03-19T05:30:30.439Z,98844.78
2023-03-19T05:32:58.433Z,98852.72
2023-03-19T05:35:26.842Z,98849.28
2023-03-19T05:37:53.998Z,98844.88
2023-03-19T05:40:21.286Z,98850.03
2023-03-19T05:42:48.075Z,98854.72
2023-03-19T05:45:15.577Z,98851.38
2023-03-19T05:47:42.311Z,98849.34
2023-03-19T05:50:10.001Z,98850.53
2023-03-19T05:52:36.709Z,98852.25
2023-03-19T05:55:04.696Z,98847.75
2023-03-19T05:57:31.663Z,98852.53
2023-03-19T05:59:58.741Z,98856.75
2023-03-19T06:02:25.548Z,98860.47
2023-03-19T06:04:52.674Z,98859.25
2023-03-19T06:07:19.421Z,98864.63
2023-03-19T06:09:46.747Z,98860.84
2023-03-19T06:12:13.494Z,98855.41
2023-03-19T06:14:40.787Z,98862.31
2023-03-19T06:17:07.632Z,98870.13
2023-03-19T06:19:34.852Z,98866.31
2023-03-19T06:22:01.711Z,98858.00
2023-03-19T06:24:30.491Z,98864.88
2023-03-19T06:26:57.260Z,98856.53
2023-03-19T06:29:24.353Z,98851.75
2023-03-19T06:31:51.332Z,98858.34
2023-03-19T06:34:18.744Z,98859.66
2023-03-19T06:36:45.547Z,98870.84
2023-03-19T06:39:12.870Z,98874.00
2023-03-19T06:41:39.746Z,98875.44
2023-03-19T06:44:07.430Z,98874.91
2023-03-19T06:46:34.162Z,98887.00
2023-03-19T06:49:01.232Z,98881.31
2023-03-19T06:51:28.083Z,98873.81
2023-03-19T06:53:55.323Z,98874.50
2023-03-19T06:56:22.198Z,98877.72
2023-03-19T06:58:49.248Z,98876.44
2023-03-19T07:01:16.571Z,98877.09
2023-03-19T07:03:43.701Z,98874.81
2023-03-19T07:06:10.549Z,98876.09
2023-03-19T07:08:37.597Z,98869.56
2023-03-19T07:11:07.458Z,98874.41
2023-03-19T07:13:34.692Z,98864.97
2023-03-19T07:16:01.723Z,98875.19
2023-03-19T07:18:30.321Z,98865.97
2023-03-19T07:20:57.107Z,98864.34
2023-03-19T07:23:24.245Z,98875.44
2023-03-19T07:25:51.145Z,98876.53
2023-03-19T07:28:18.170Z,98874.56
2023-03-19T07:30:44.974Z,98874.78
2023-03-19T07:33:12.849Z,98879.66
2023-03-19T07:35:39.763Z,98867.69
2023-03-19T07:38:06.855Z,98873.38
2023-03-19T07:40:33.762Z,98881.78
2023-03-19T07:43:01.115Z,98876.91
2023-03-19T07:45:27.963Z,98879.91
2023-03-19T07:47:55.244Z,98881.28
2023-03-19T07:50:22.029Z,98875.47
2023-03-19T07:52:49.532Z,98869.41
2023-03-19T07:55:16.354Z,98872.75
2023-03-19T07:57:43.508Z,98879.09
2023-03-19T08:00:10.978Z,98868.84
2023-03-19T08:02:38.113Z,98873.03
2023-03-19T08:05:05.248Z,98866.19
2023-03-19T08:07:32.502Z,98871.03
2023-03-19T08:09:59.289Z,98872.91
2023-03-19T08:12:26.370Z,98871.38
2023-03-19T08:14:53.213Z,98866.38
2023-03-19T08:17:20.291Z,98869.34
2023-03-19T08:19:47.118Z,98865.94
2023-03-19T08:22:14.233Z,98865.47
2023-03-19T08:24:41.027Z,98862.16
2023-03-19T08:27:08.243Z,98866.88
2023-03-19T08:29:35.223Z,98867.00
2023-03-19T08:32:02.411Z,98871.78
2023-03-19T08:34:29.201Z,98866.53
2023-03-19T08:36:56.384Z,98856.25
2023-03-19T08:39:24.019Z,98851.94
2023-03-19T08:41:51.345Z,98863.03
2023-03-19T08:44:18.105Z,98869.56
2023-03-19T08:46:45.667Z,98867.06
2023-03-19T08:49:12.456Z,98867.56
2023-03-19T08:51:40.542Z,98874.31
2023-03-19T08:54:07.372Z,98876.16
2023-03-19T08:56:34.429Z,98872.84
2023-03-19T08:59:01.196Z,98872.59
2023-03-19T09:01:28.307Z,98870.97
2023-03-19T09:03:55.154Z,98873.19
2023-03-19T09:06:22.291Z,98868.84
2023-03-19T09:08:49.080Z,98875.34
2023-03-19T09:11:17.432Z,98877.66
2023-03-19T09:13:44.273Z,98870.75
2023-03-19T09:16:11.477Z,98869.38
2023-03-19T09:18:38.453Z,98868.75
2023-03-19T09:21:05.978Z,98858.13
2023-03-19T09:23:32.857Z,98853.91
2023-03-19T09:25:59.920Z,98863.28
2023-03-19T09:28:27.195Z,98853.03
2023-03-19T09:30:54.421Z,98856.22
2023-03-19T09:33:21.624Z,98852.97
2023-03-19T09:35:52.782Z,98860.88
2023-03-19T09:38:21.033Z,98856.81
2023-03-19T09:40:49.520Z,98853.69
2023-03-19T09:43:22.439Z,98852.31
2023-03-19T09:45:50.236Z,98850.91
2023-03-19T09:48:20.082Z,98849.50
2023-03-19T09:50:48.012Z,98860.06
2023-03-19T09:53:27.155Z,98853.88
2023-03-19T09:55:54.441Z,98852.44
2023-03-19T09:58:23.568Z,98848.19
2023-03-19T10:00:51.302Z,98850.09
2023-03-19T10:03:30.478Z,98844.88
2023-03-19T10:06:16.486Z,98837.75
2023-03-19T10:08:53.397Z,98834.41
2023-03-19T10:11:39.167Z,98832.97
2023-03-19T10:14:36.256Z,98831.84
2023-03-19T10:17:04.532Z,98834.84
2023-03-19T10:19:45.700Z,98827.03
2023-03-19T10:22:16.806Z,98819.31
2023-03-19T10:24:45.210Z,98812.91
2023-03-19T10:27:17.455Z,98825.75
2023-03-19T10:29:44.236Z,98821.06
2023-03-19T10:32:19.035Z,98823.94
2023-03-19T10:34:50.480Z,98813.91
2023-03-19T10:37:22.191Z,98816.91
2023-03-19T10:39:50.705Z,98810.47
2023-03-19T10:42:17.863Z,98811.22
2023-03-19T10:45:05.526Z,98800.16
2023-03-19T10:47:37.892Z,98799.59
2023-03-19T10:50:05.064Z,98799.16
2023-03-19T10:52:35.802Z,98789.88
2023-03-19T10:55:12.797Z,98783.72
2023-03-19T10:57:41.818Z,98780.25
2023-03-19T11:00:19.385Z,98768.13
2023-03-19T11:02:52.642Z,98772.09
2023-03-19T11:05:23.059Z,98767.78
2023-03-19T11:07:51.387Z,98758.06
2023-03-19T11:10:19.055Z,98752.16
2023-03-19T11:13:00.693Z,98748.56
2023-03-19T11:15:40.121Z,98752.97
2023-03-19T11:18:08.364Z,98756.63
2023-03-19T11:20:37.142Z,98751.03
2023-03-19T11:23:12.642Z,98755.63
2023-03-19T11:25:42.031Z,98751.44
2023-03-19T11:28:14.142Z,98748.03
2023-03-19T11:30:49.043Z,98746.34
2023-03-19T11:33:32.729Z,98741.97
2023-03-19T11:36:08.610Z,98746.13
2023-03-19T11:39:15.641Z,98734.81
2023-03-19T11:41:54.330Z,98727.72
2023-03-19T11:44:43.650Z,98732.41
2023-03-19T11:47:37.780Z,98735.28
2023-03-19T11:50:27.278Z,98725.63
2023-03-19T11:53:18.130Z,98720.31
2023-03-19T11:56:03.571Z,98711.00
2023-03-19T11:58:48.613Z,98714.41
2023-03-19T12:01:29.552Z,98714.47
2023-03-19T12:04:34.161Z,98709.88
2023-03-19T12:07:13.212Z,98714.94
2023-03-19T12:10:00.954Z,98699.94
2023-03-19T12:12:39.979Z,98686.56
2023-03-19T12:15:18.879Z,98687.63
2023-03-19T12:18:28.140Z,98687.63
2023-03-19T12:21:13.724Z,98692.47
2023-03-19T12:24:29.042Z,98693.78
2023-03-19T12:27:21.092Z,98693.47
2023-03-19T12:30:08.331Z,98689.38
2023-03-19T12:32:46.395Z,98690.00
2023-03-19T12:35:16.687Z,98689.06
2023-03-19T12:37:59.790Z,98689.94
2023-03-19T12:40:39.887Z,98690.31
2023-03-19T12:43:11.012Z,98684.34
2023-03-19T12:45:48.689Z,98682.84
2023-03-19T12:48:19.358Z,98683.72
2023-03-19T12:50:50.006Z,98688.63
2023-03-19T12:53:28.837Z,98689.66
2023-03-19T12:55:58.670Z,98685.06
2023-03-19T12:58:32.497Z,98677.56
2023-03-19T13:01:02.203Z,98686.13
2023-03-19T13:03:34.252Z,98672.81
2023-03-19T13:06:16.085Z,98674.19
2023-03-19T13:08:49.888Z,98679.31
2023-03-19T13:11:21.646Z,98676.44
2023-03-19T13:13:53.356Z,98674.53
2023-03-19T13:16:58.724Z,98676.63
2023-03-19T13:19:30.256Z,98677.97
2023-03-19T13:21:59.724Z,98666.91
2023-03-19T13:24:30.318Z,98667.06
2023-03-19T13:26:58.662Z,98653.13
2023-03-19T13:29:29.572Z,98654.00
2023-03-19T13:32:06.106Z,98661.66
2023-03-19T13:34:34.590Z,98664.03
2023-03-19T13:37:07.132Z,98660.28
2023-03-19T13:39:34.371Z,98646.66
2023-03-19T13:42:24.260Z,98643.25
2023-03-19T13:44:51.718Z,98650.06
2023-03-19T13:47:36.425Z,98646.84
2023-03-19T13:50:08.590Z,98639.84
2023-03-19T13:52:46.285Z,98640.56
2023-03-19T13:55:25.796Z,98636.63
2023-03-19T13:58:12.312Z,98631.16
2023-03-19T14:00:42.956Z,98623.00
2023-03-19T14:03:20.910Z,98627.75
2023-03-19T14:05:48.774Z,98616.34
2023-03-19T14:08:20.288Z,98612.41
2023-03-19T14:10:51.352Z,98609.69
2023-03-19T14:13:31.655Z,98608.00
2023-03-19T14:16:10.140Z,98615.81
2023-03-19T14:18:40.366Z,98614.31
2023-03-19T14:21:12.877Z,98609.69
2023-03-19T14:23:44.124Z,98618.53
2023-03-19T14:26:18.114Z,98618.03
2023-03-19T14:28:45.221Z,98609.69
2023-03-19T14:31:37.120Z,98615.31
2023-03-19T14:34:25.806Z,98596.06
2023-03-19T14:37:36.243Z,98600.66
2023-03-19T14:40:16.147Z,98608.84
2023-03-19T14:43:03.429Z,98603.41
2023-03-19T14:45:36.646Z,98608.00
2023-03-19T14:48:07.260Z,98606.63
2023-03-19T14:50:43.405Z,98600.50
2023-03-19T14:53:44.939Z,98604.94
2023-03-19T14:56:24.135Z,98601.16
2023-03-19T14:58:53.334Z,98601.50
2023-03-19T15:01:21.027Z,98608.00
2023-03-19T15:03:53.280Z,98611.41
2023-03-19T15:06:20.377Z,98609.84
2023-03-19T15:08:49.531Z,98614.63
2023-03-19T15:11:27.717Z,98600.16
2023-03-19T15:14:12.009Z,98608.31
2023-03-19T15:17:23.770Z,98615.66
2023-03-19T15:19:50.887Z,98617.34
2023-03-19T15:22:31.832Z,98624.00
2023-03-19T15:25:14.907Z,98621.44
2023-03-19T15:27:42.321Z,98605.56
2023-03-19T15:30:52.421Z,98600.44
2023-03-19T15:33:39.570Z,98596.22
2023-03-19T15:36:34.421Z,98608.44
2023-03-19T15:39:06.837Z,98604.72
2023-03-19T15:41:35.951Z,98599.44
2023-03-19T15:44:05.242Z,98598.75
2023-03-19T15:46:33.412Z,98610.47
2023-03-19T15:49:28.804Z,98616.09
2023-03-19T15:51:59.081Z,98615.41
2023-03-19T15:54:26.404Z,98613.88
2023-03-19T15:56:53.183Z,98611.47
2023-03-19T15:59:21.556Z,98618.13
2023-03-19T16:01:48.750Z,98619.13
2023-03-19T16:04:20.813Z,98621.31
2023-03-19T16:06:49.161Z,98620.47
2023-03-19T16:09:19.196Z,98621.50
2023-03-19T16:11:46.341Z,98617.25
2023-03-19T16:14:23.165Z,98625.72
2023-03-19T16:16:50.095Z,98621.28
2023-03-19T16:19:33.389Z,98622.50
2023-03-19T16:22:00.470Z,98627.22
2023-03-19T16:24:34.353Z,98630.31
2023-03-19T16:27:06.577Z,98637.59
2023-03-19T16:29:39.002Z,98630.06
2023-03-19T16:32:11.905Z,98633.09
2023-03-19T16:34:49.225Z,98637.69
2023-03-19T16:37:28.653Z,98638.88
2023-03-19T16:39:57.048Z,98642.75
2023-03-19T16:42:32.969Z,98643.13
2023-03-19T16:45:15.710Z,98647.00
2023-03-19T16:47:43.150Z,98649.03
2023-03-19T16:50:10.962Z,98645.63
2023-03-19T16:52:38.314Z,98659.41
2023-03-19T16:55:05.880Z,98665.00
2023-03-19T16:57:32.647Z,98668.03
2023-03-19T16:59:59.725Z,98663.91
2023-03-19T17:02:26.497Z,98666.97
2023-03-19T17:04:53.729Z,98667.28
2023-03-19T17:07:20.666Z,98668.75
2023-03-19T17:09:47.738Z,98677.09
2023-03-19T17:12:15.476Z,98675.72
2023-03-19T17:14:42.779Z,98683.34
2023-03-19T17:17:19.316Z,98680.94
2023-03-19T17:19:46.852Z,98685.00
2023-03-19T17:22:14.466Z,98686.47
2023-03-19T17:24:43.312Z,98684.94
2023-03-19T17:27:10.586Z,98689.09
2023-03-19T17:29:37.699Z,98685.16
2023-03-19T17:32:04.656Z,98693.63
2023-03-19T17:34:32.111Z,98699.53
2023-03-19T17:37:00.395Z,98694.41
2023-03-19T17:39:30.007Z,98701.03
2023-03-19T17:41:56.866Z,98704.31
2023-03-19T17:44:24.170Z,98695.78
2023-03-19T17:46:52.262Z,98691.66
2023-03-19T17:49:23.405Z,98692.97
2023-03-19T17:51:50.888Z,98697.31
2023-03-19T17:54:18.029Z,98693.03
2023-03-19T17:56:44.849Z,98696.94
2023-03-19T17:59:12.033Z,98694.66
2023-03-19T18:01:40.234Z,98694.44
2023-03-19T18:04:07.527Z,98692.00
2023-03-19T18:06:35.574Z,98700.78
2023-03-19T18:09:03.159Z,98705.66
2023-03-19T18:11:30.002Z,98703.25
2023-03-19T18:13:57.033Z,98701.13
2023-03-19T18:16:30.720Z,98705.19
2023-03-19T18:19:02.057Z,98707.47
2023-03-19T18:21:29.194Z,98708.94
2023-03-19T18:23:57.389Z,98706.66
2023-03-19T18:26:24.881Z,98710.53
2023-03-19T18:28:52.127Z,98706.88
2023-03-19T18:31:21.413Z,98715.31
2023-03-19T18:33:50.405Z,98708.56
2023-03-19T18:36:19.548Z,98711.16
2023-03-19T18:38:46.692Z,98713.03
2023-03-19T18:41:19.924Z,98709.91
2023-03-19T18:43:47.206Z,98713.06
2023-03-19T18:46:17.033Z,98716.78
2023-03-19T18:48:44.227Z,98715.50
2023-03-19T18:51:11.482Z,98724.94
2023-03-19T18:53:39.981Z,98717.09
2023-03-19T18:56:18.441Z,98720.25
2023-03-19T18:58:45.696Z,98728.66
2023-03-19T19:01:15.380Z,98726.28
2023-03-19T19:03:43.317Z,98721.41
2023-03-19T19:06:10.218Z,98724.28
2023-03-19T19:08:37.472Z,98731.13
2023-03-19T19:11:05.600Z,98732.69
2023-03-19T19:13:46.203Z,98729.84
2023-03-19T19:16:21.918Z,98734.28
2023-03-19T19:18:49.376Z,98731.84
2023-03-19T19:21:16.396Z,98734.97
2023-03-19T19:23:43.715Z,98730.00
2023-03-19T19:26:31.145Z,98732.59
2023-03-19T19:28:59.626Z,98728.56
2023-03-19T19:31:28.269Z,98726.72
2023-03-19T19:33:55.733Z,98718.59
2023-03-19T19:36:23.527Z,98719.16
2023-03-19T19:38:52.115Z,98724.16
2023-03-19T19:41:21.952Z,98715.72
2023-03-19T19:43:49.159Z,98727.38
2023-03-19T19:46:22.607Z,98720.81
2023-03-19T19:48:50.030Z,98723.09
2023-03-19T19:51:24.865Z,98729.06
2023-03-19T19:53:52.392Z,98726.66
2023-03-19T19:56:23.732Z,98726.91
2023-03-19T19:58:52.579Z,98718.50
2023-03-19T20:01:24.330Z,98724.53
2023-03-19T20:03:52.760Z,98731.63
2023-03-19T20:06:20.523Z,98742.03
2023-03-19T20:08:49.473Z,98735.75
2023-03-19T20:11:18.336Z,98734.88
2023-03-19T20:13:52.085Z,98733.59
2023-03-19T20:16:20.234Z,98730.88
2023-03-19T20:18:48.519Z,98736.59
2023-03-19T20:21:16.352Z,98737.88
2023-03-19T20:23:44.909Z,98741.81
2023-03-19T20:26:20.992Z,98742.84
2023-03-19T20:28:49.130Z,98747.69
2023-03-19T20:31:19.931Z,98743.38
2023-03-19T20:33:47.957Z,98743.66
2023-03-19T20:36:15.963Z,98742.34
2023-03-19T20:38:44.083Z,98748.19
2023-03-19T20:41:29.643Z,98745.47
2023-03-19T20:43:57.849Z,98744.88
2023-03-19T20:46:25.754Z,98747.16
2023-03-19T20:48:53.699Z,98746.56
2023-03-19T20:51:23.131Z,98744.13
2023-03-19T20:53:51.884Z,98746.25
2023-03-19T20:56:24.705Z,98741.94
2023-03-19T20:58:52.711Z,98739.38
2023-03-19T21:01:20.286Z,98746.06
2023-03-19T21:03:48.081Z,98742.66
2023-03-19T21:06:22.994Z,98750.91
2023-03-19T21:08:54.597Z,98740.34
2023-03-19T21:11:22.658Z,98747.75
2023-03-19T21:13:52.630Z,98750.44
2023-03-19T21:16:24.502Z,98746.16
2023-03-19T21:18:51.955Z,98748.13
2023-03-19T21:21:19.374Z,98745.44
2023-03-19T21:24:07.202Z,98744.84
2023-03-19T21:26:37.894Z,98743.25
2023-03-19T21:29:12.037Z,98738.84
2023-03-19T21:31:38.916Z,98744.25
2023-03-19T21:34:06.340Z,98748.91
2023-03-19T21:36:33.424Z,98743.03
2023-03-19T21:39:01.366Z,98752.00
2023-03-19T21:41:31.827Z,98746.88
2023-03-19T21:44:04.084Z,98750.41
2023-03-19T21:46:31.169Z,98752.41
2023-03-19T21:48:58.595Z,98746.53
2023-03-19T21:51:26.206Z,98745.94
2023-03-19T21:53:53.307Z,98744.94
2023-03-19T21:56:33.361Z,98743.38
2023-03-19T21:59:02.276Z,98740.09
2023-03-19T22:01:29.153Z,98738.47
2023-03-19T22:03:57.020Z,98742.03
2023-03-19T22:06:24.453Z,98740.84
2023-03-19T22:08:53.920Z,98740.84
2023-03-19T22:11:28.738Z,98748.13
2023-03-19T22:14:07.543Z,98742.13
2023-03-19T22:16:34.665Z,98742.13
2023-03-19T22:19:01.899Z,98743.34
2023-03-19T22:21:30.651Z,98734.53
2023-03-19T22:23:57.833Z,98730.97
2023-03-19T22:26:34.998Z,98725.69
2023-03-19T22:29:04.644Z,98728.78
2023-03-19T22:31:31.470Z,98730.34
2023-03-19T22:33:58.864Z,98725.22
2023-03-19T22:36:25.615Z,98723.50
2023-03-19T22:38:52.737Z,98720.22
2023-03-19T22:41:46.467Z,98723.03
2023-03-19T22:44:17.584Z,98720.34
2023-03-19T22:46:44.523Z,98722.44
2023-03-19T22:49:15.766Z,98727.25
2023-03-19T22:51:43.643Z,98720.84
2023-03-19T22:54:13.692Z,98722.84
2023-03-19T22:56:40.694Z,98728.50
2023-03-19T22:59:07.743Z,98727.91
2023-03-19T23:01:41.787Z,98727.03
2023-03-19T23:04:18.183Z,98730.84
2023-03-19T23:06:45.362Z,98729.28
2023-03-19T23:09:17.213Z,98729.41
2023-03-19T23:11:44.141Z,98731.22
2023-03-19T23:14:26.126Z,98726.09
2023-03-19T23:16:55.913Z,98724.63
2023-03-19T23:19:23.848Z,98719.47
2023-03-19T23:21:50.776Z,98723.56
2023-03-19T23:24:18.745Z,98723.56
2023-03-19T23:26:47.188Z,98725.41
2023-03-19T23:29:19.183Z,98720.28
2023-03-19T23:31:46.304Z,98724.78
2023-03-19T23:34:13.844Z,98718.78
2023-03-19T23:36:40.700Z,98717.09
2023-03-19T23:39:07.828Z,98719.91
2023-03-19T23:41:34.637Z,98718.84
2023-03-19T23:44:03.049Z,98709.00
2023-03-19T23:46:30.148Z,98714.41
2023-03-19T23:48:57.299Z,98711.84
2023-03-19T23:51:24.050Z,98714.41
2023-03-19T23:53:51.431Z,98709.63
2023-03-19T23:56:26.049Z,98709.63
2023-03-19T23:58:54.265Z,98707.81
